Time;durP1;ratioP1;P1;durP2;ratioP2;P2;SDS_P1;SDS_P2;PMS_P1;PMS_P2;Temp;Humidity;BMP_temperature;BMP_pressure;BME280_temperature;BME280_humidity;BME280_pressure;Samples;Min_cycle;Max_cycle;Signal;HPM_P1;HPM_P2
2023/08/21 00:02:19;;;;;;;14.90;13.70;;;;;;;21.37;100.00;99832.25;5091091;28;20212;-83
2023/08/21 00:04:46;;;;;;;14.52;13.23;;;;;;;21.27;100.00;99821.47;5074568;28;20188;-82
2023/08/21 00:07:13;;;;;;;14.48;13.35;;;;;;;21.20;100.00;99831.03;5090655;28;20192;-82
2023/08/21 00:09:42;;;;;;;14.23;13.02;;;;;;;21.17;100.00;99823.44;5095228;28;20186;-82
2023/08/21 00:12:09;;;;;;;14.57;13.45;;;;;;;21.18;100.00;99823.16;5092851;28;20200;-82
2023/08/21 00:14:37;;;;;;;14.23;13.15;;;;;;;21.16;100.00;99819.09;5089998;28;20216;-82
2023/08/21 00:17:04;;;;;;;14.88;13.50;;;;;;;21.14;100.00;99826.75;5088617;28;20656;-83
2023/08/21 00:19:33;;;;;;;14.88;13.60;;;;;;;21.10;100.00;99821.00;5089313;28;20242;-82
2023/08/21 00:22:01;;;;;;;14.32;13.23;;;;;;;21.05;100.00;99813.69;5089050;28;20210;-82
2023/08/21 00:24:29;;;;;;;14.50;13.38;;;;;;;21.01;100.00;99823.53;5094632;28;20667;-92
2023/08/21 00:26:57;;;;;;;14.63;13.43;;;;;;;20.96;100.00;99817.28;5082085;28;20189;-82
2023/08/21 00:29:24;;;;;;;14.00;12.95;;;;;;;20.93;100.00;99815.13;5092164;28;20212;-87
2023/08/21 00:31:52;;;;;;;14.30;13.23;;;;;;;20.91;100.00;99809.97;5099562;28;20249;-82
2023/08/21 00:34:21;;;;;;;14.35;13.13;;;;;;;20.89;100.00;99812.19;5094441;28;20231;-82
2023/08/21 00:36:49;;;;;;;15.40;14.07;;;;;;;20.86;100.00;99807.28;5093875;28;20253;-82
2023/08/21 00:39:16;;;;;;;14.27;13.27;;;;;;;20.83;100.00;99813.28;5093944;28;20201;-82
2023/08/21 00:41:44;;;;;;;14.63;13.43;;;;;;;20.79;100.00;99816.88;5093804;28;20200;-83
2023/08/21 00:44:11;;;;;;;15.00;13.80;;;;;;;20.73;100.00;99816.06;5092482;28;20204;-83
2023/08/21 00:46:40;;;;;;;16.27;13.57;;;;;;;20.71;100.00;99812.84;5094209;28;20209;-82
2023/08/21 00:49:09;;;;;;;14.52;13.43;;;;;;;20.68;100.00;99821.56;5092587;28;20278;-82
2023/08/21 00:51:37;;;;;;;14.77;13.48;;;;;;;20.68;100.00;99816.09;5059722;28;20193;-82
2023/08/21 00:54:05;;;;;;;14.45;13.25;;;;;;;20.65;100.00;99820.22;5085417;28;20196;-84
2023/08/21 00:56:33;;;;;;;14.48;13.38;;;;;;;20.62;100.00;99818.03;5092319;28;20207;-82
2023/08/21 00:59:01;;;;;;;14.32;13.23;;;;;;;20.51;100.00;99818.38;5099722;28;20233;-83
2023/08/21 01:01:28;;;;;;;15.02;13.65;;;;;;;20.47;100.00;99822.78;5092292;28;20545;-82
2023/08/21 01:03:56;;;;;;;14.93;13.63;;;;;;;20.45;100.00;99820.31;5062629;28;20224;-83
2023/08/21 01:06:23;;;;;;;14.13;13.00;;;;;;;20.47;100.00;99817.31;5087570;28;20205;-83
2023/08/21 01:09:03;;;;;;;14.07;12.98;;;;;;;20.44;100.00;99824.13;5087885;28;20338;-82
2023/08/21 01:11:43;;;;;;;15.85;14.32;;;;;;;20.44;100.00;99817.88;5104314;28;20227;-82
2023/08/21 01:14:36;;;;;;;15.32;14.13;;;;;;;20.41;100.00;99819.25;5091992;28;20196;-82
2023/08/21 01:17:05;;;;;;;14.35;13.25;;;;;;;20.41;100.00;99818.44;5089869;28;20199;-82
2023/08/21 01:19:41;;;;;;;15.30;14.10;;;;;;;20.41;100.00;99823.88;5101022;28;20215;-83
2023/08/21 01:22:09;;;;;;;15.13;13.75;;;;;;;20.42;100.00;99817.34;5074502;28;20208;-82
2023/08/21 01:24:36;;;;;;;14.93;13.82;;;;;;;20.41;100.00;99821.97;5091593;28;20271;-84
2023/08/21 01:27:04;;;;;;;14.80;13.50;;;;;;;20.42;100.00;99814.63;5097211;28;20200;-82
2023/08/21 01:29:33;;;;;;;15.15;13.95;;;;;;;20.40;100.00;99814.91;5092033;28;20216;-82
2023/08/21 01:32:35;;;;;;;15.35;14.25;;;;;;;20.42;100.00;99811.91;5088784;28;20189;-82
2023/08/21 01:35:03;;;;;;;15.07;13.88;;;;;;;20.41;100.00;99811.09;5004678;28;20711;-83
2023/08/21 01:37:31;;;;;;;14.85;13.52;;;;;;;20.42;100.00;99811.91;5090673;28;20246;-83
2023/08/21 01:39:59;;;;;;;14.73;13.52;;;;;;;20.41;100.00;99807.56;5086069;28;20287;-82
2023/08/21 01:42:27;;;;;;;14.63;13.35;;;;;;;20.39;100.00;99807.81;5092434;28;20698;-83
2023/08/21 01:44:55;;;;;;;15.07;13.88;;;;;;;20.40;100.00;99814.91;5095310;28;20572;-83
2023/08/21 01:47:22;;;;;;;14.73;13.52;;;;;;;20.41;100.00;99810.28;5074725;28;20201;-83
2023/08/21 01:49:53;;;;;;;15.05;13.88;;;;;;;20.40;100.00;99806.72;5096930;28;20224;-82
2023/08/21 01:52:21;;;;;;;15.02;13.82;;;;;;;20.41;100.00;99807.56;5091310;28;20241;-83
2023/08/21 01:54:50;;;;;;;15.25;13.88;;;;;;;20.37;100.00;99812.75;5091879;28;20231;-83
2023/08/21 01:57:18;;;;;;;15.27;13.95;;;;;;;20.36;100.00;99826.63;5074464;28;20595;-88
2023/08/21 01:59:45;;;;;;;15.25;13.93;;;;;;;20.33;100.00;99819.03;5088323;28;20702;-82
2023/08/21 02:02:12;;;;;;;14.95;13.57;;;;;;;20.29;100.00;99818.75;5071485;28;20299;-83
2023/08/21 02:04:40;;;;;;;15.57;14.30;;;;;;;20.29;100.00;99812.47;5089705;28;20538;-83
2023/08/21 02:07:08;;;;;;;15.00;13.80;;;;;;;20.26;100.00;99810.28;5093140;28;20623;-83
2023/08/21 02:09:35;;;;;;;14.77;13.68;;;;;;;20.25;100.00;99812.19;5086307;28;20663;-82
2023/08/21 02:12:04;;;;;;;14.90;13.50;;;;;;;20.25;100.00;99809.47;5086361;28;20207;-82
2023/08/21 02:14:31;;;;;;;15.18;14.07;;;;;;;20.23;100.00;99809.78;5094429;28;20203;-84
2023/08/21 02:16:59;;;;;;;15.38;14.18;;;;;;;20.22;100.00;99802.72;5090864;28;20246;-82
2023/08/21 02:19:27;;;;;;;14.88;13.68;;;;;;;20.20;100.00;99801.38;5095308;28;20205;-83
2023/08/21 02:21:58;;;;;;;15.32;13.85;;;;;;;20.18;100.00;99804.34;5086134;28;20658;-82
2023/08/21 02:24:26;;;;;;;14.55;13.35;;;;;;;20.17;100.00;99812.78;5088916;28;20193;-83
2023/08/21 02:26:54;;;;;;;15.48;14.38;;;;;;;20.15;100.00;99818.53;5086839;28;20245;-83
2023/08/21 02:29:22;;;;;;;15.25;13.95;;;;;;;20.15;100.00;99821.25;5086808;28;20564;-82
2023/08/21 02:31:50;;;;;;;14.90;13.65;;;;;;;20.13;100.00;99815.25;5089152;28;20200;-83
2023/08/21 02:34:18;;;;;;;15.93;14.40;;;;;;;20.10;100.00;99815.81;5087714;28;20319;-90
2023/08/21 02:36:46;;;;;;;14.45;13.35;;;;;;;20.05;100.00;99809.59;5094882;28;20195;-82
2023/08/21 02:39:13;;;;;;;14.32;13.23;;;;;;;20.02;100.00;99813.66;5091600;28;20258;-83
2023/08/21 02:41:41;;;;;;;15.05;13.77;;;;;;;20.00;100.00;99804.16;5086462;28;20387;-83
2023/08/21 02:44:09;;;;;;;15.30;14.10;;;;;;;19.98;100.00;99809.03;5091980;28;20222;-83
2023/08/21 02:46:37;;;;;;;14.95;13.65;;;;;;;19.92;100.00;99812.88;5088754;28;20216;-83
2023/08/21 02:49:05;;;;;;;14.63;13.52;;;;;;;19.88;100.00;99818.03;5087915;28;20258;-84
2023/08/21 02:51:33;;;;;;;15.23;14.02;;;;;;;19.87;100.00;99815.63;5085579;28;20243;-83
2023/08/21 02:54:01;;;;;;;15.18;13.98;;;;;;;19.82;100.00;99810.19;5099037;28;20204;-83
2023/08/21 02:56:29;;;;;;;14.98;13.82;;;;;;;19.78;100.00;99815.38;5080155;28;20195;-83
2023/08/21 02:58:56;;;;;;;15.77;14.48;;;;;;;19.72;100.00;99814.56;5091520;28;20199;-83
2023/08/21 03:01:24;;;;;;;15.93;14.52;;;;;;;19.59;100.00;99817.84;5095578;28;20249;-83
2023/08/21 03:03:51;;;;;;;15.70;14.32;;;;;;;19.52;100.00;99814.59;5073648;28;20251;-83
2023/08/21 03:06:20;;;;;;;15.77;14.52;;;;;;;19.47;100.00;99809.16;5077359;28;20203;-84
2023/08/21 03:08:48;;;;;;;15.60;14.43;;;;;;;19.40;100.00;99816.75;5091407;28;20675;-83
2023/08/21 03:11:18;;;;;;;16.25;14.98;;;;;;;19.38;100.00;99815.38;5098244;28;20195;-82
2023/08/21 03:13:46;;;;;;;16.48;15.18;;;;;;;19.35;100.00;99808.59;5091718;28;20188;-83
2023/08/21 03:16:13;;;;;;;15.83;14.67;;;;;;;19.30;100.00;99808.59;5102909;28;20202;-83
2023/08/21 03:18:58;;;;;;;16.30;14.90;;;;;;;19.27;100.00;99811.88;5095570;28;20547;-83
2023/08/21 03:21:29;;;;;;;16.33;15.05;;;;;;;19.22;100.00;99814.59;5096148;28;20196;-82
2023/08/21 03:24:01;;;;;;;16.47;15.17;;;;;;;19.21;100.00;99821.09;5078480;28;20219;-83
2023/08/21 03:26:31;;;;;;;17.07;15.40;;;;;;;19.18;100.00;99819.72;5095570;28;20636;-83
2023/08/21 03:28:59;;;;;;;16.17;14.73;;;;;;;19.20;100.00;99814.03;5089888;28;20677;-82
2023/08/21 03:31:27;;;;;;;15.90;14.60;;;;;;;19.16;100.00;99823.81;5072548;28;20199;-83
2023/08/21 03:33:54;;;;;;;16.93;15.63;;;;;;;19.12;100.00;99823.53;5093886;28;20313;-84
2023/08/21 03:36:31;;;;;;;16.05;14.65;;;;;;;19.11;100.00;99824.63;5100506;28;20193;-83
2023/08/21 03:39:05;;;;;;;16.37;15.10;;;;;;;19.11;100.00;99821.91;5078244;28;20215;-83
2023/08/21 03:41:37;;;;;;;16.13;14.93;;;;;;;19.11;100.00;99823.81;5071871;28;20648;-83
2023/08/21 03:44:05;;;;;;;15.85;14.55;;;;;;;19.12;100.00;99820.81;5101300;27;20213;-84
2023/08/21 03:46:32;;;;;;;16.48;15.18;;;;;;;19.13;100.00;99822.44;5096580;28;20303;-83
2023/08/21 03:49:00;;;;;;;15.97;14.53;;;;;;;19.15;100.00;99824.88;5084617;28;20230;-83
2023/08/21 03:51:28;;;;;;;15.98;14.70;;;;;;;19.14;100.00;99818.63;5070422;28;20267;-83
2023/08/21 03:53:57;;;;;;;16.17;14.73;;;;;;;19.13;100.00;99829.78;5070390;28;20202;-83
2023/08/21 03:56:24;;;;;;;16.30;14.90;;;;;;;19.12;100.00;99830.88;5093641;28;20291;-83
2023/08/21 03:58:53;;;;;;;15.83;14.53;;;;;;;19.10;100.00;99828.41;5077205;28;20204;-83
2023/08/21 04:01:21;;;;;;;15.70;14.40;;;;;;;19.11;100.00;99832.75;5101757;28;20367;-83
2023/08/21 04:03:48;;;;;;;16.73;15.30;;;;;;;19.12;100.00;99834.41;5092182;28;20233;-83
2023/08/21 04:06:15;;;;;;;16.93;15.60;;;;;;;19.10;100.00;99825.69;5099888;28;20190;-83
2023/08/21 04:08:42;;;;;;;16.53;15.10;;;;;;;19.13;100.00;99836.00;5097800;28;20204;-83
2023/08/21 04:11:11;;;;;;;15.77;14.47;;;;;;;19.14;100.00;99834.13;5097619;28;20283;-83
2023/08/21 04:13:39;;;;;;;17.20;15.80;;;;;;;19.16;100.00;99830.06;5058807;28;20656;-84
2023/08/21 04:16:06;;;;;;;17.40;15.93;;;;;;;19.16;100.00;99829.25;5080755;28;20211;-83
2023/08/21 04:18:33;;;;;;;16.30;15.10;;;;;;;19.18;100.00;99835.19;5098237;28;20298;-83
2023/08/21 04:21:09;;;;;;;17.57;16.00;;;;;;;19.22;100.00;99839.81;5093272;28;20708;-83
2023/08/21 04:23:36;;;;;;;16.10;14.80;;;;;;;19.29;100.00;99839.56;5094074;28;20694;-82
2023/08/21 04:26:05;;;;;;;16.67;15.27;;;;;;;19.32;100.00;99839.81;5066938;28;20209;-83
2023/08/21 04:28:33;;;;;;;17.50;16.10;;;;;;;19.39;100.00;99841.47;5090741;28;20196;-82
2023/08/21 04:31:07;;;;;;;16.80;15.33;;;;;;;19.45;100.00;99832.25;5076331;28;20294;-82
2023/08/21 04:33:36;;;;;;;16.80;15.30;;;;;;;19.53;100.00;99831.72;5092480;28;20262;-83
2023/08/21 04:36:05;;;;;;;17.30;15.80;;;;;;;19.62;100.00;99832.78;5095995;28;20202;-83
2023/08/21 04:38:33;;;;;;;16.97;15.63;;;;;;;19.70;100.00;99833.03;5090897;28;20210;-82
2023/08/21 04:41:07;;;;;;;16.73;15.37;;;;;;;19.86;100.00;99843.88;5091989;28;20198;-83
2023/08/21 04:43:38;;;;;;;17.10;15.65;;;;;;;20.00;100.00;99842.22;5077200;28;20499;-82
2023/08/21 04:46:07;;;;;;;17.03;15.53;;;;;;;20.11;100.00;99844.63;5100139;28;20193;-83
2023/08/21 04:48:37;;;;;;;17.00;15.65;;;;;;;20.25;100.00;99839.41;5084487;28;20228;-82
2023/08/21 04:51:05;;;;;;;16.43;15.17;;;;;;;20.38;100.00;99840.78;5090840;28;20211;-84
2023/08/21 04:53:33;;;;;;;15.80;14.30;;;;;;;20.52;100.00;99845.34;5061592;28;20232;-82
2023/08/21 04:56:03;;;;;;;15.95;14.75;;;;;;;20.69;100.00;99841.44;5094969;28;20305;-82
2023/08/21 04:58:32;;;;;;;15.30;13.90;;;;;;;20.85;100.00;99843.78;5083366;28;20200;-82
2023/08/21 05:01:00;;;;;;;16.52;14.90;;;;;;;21.02;100.00;99848.84;5101967;28;20195;-82
2023/08/21 05:03:28;;;;;;;14.98;13.73;;;;;;;21.17;100.00;99854.22;5092097;28;20274;-82
2023/08/21 05:05:56;;;;;;;16.30;14.90;;;;;;;21.30;100.00;99861.75;5092317;28;20200;-82
2023/08/21 05:08:25;;;;;;;17.40;15.90;;;;;;;21.43;100.00;99855.66;5094947;28;20250;-82
2023/08/21 05:10:56;;;;;;;16.13;14.77;;;;;;;21.62;100.00;99855.75;5089810;28;20206;-83
2023/08/21 05:13:26;;;;;;;15.63;14.32;;;;;;;21.76;100.00;99859.44;5102241;28;20192;-83
2023/08/21 05:15:55;;;;;;;16.38;14.95;;;;;;;21.91;100.00;99862.03;5079555;28;20665;-82
2023/08/21 05:18:25;;;;;;;15.75;14.35;;;;;;;22.05;100.00;99859.47;5063844;28;20224;-82
2023/08/21 05:20:54;;;;;;;15.20;13.82;;;;;;;22.18;100.00;99861.50;5086824;28;20180;-82
2023/08/21 05:23:23;;;;;;;16.17;14.70;;;;;;;22.26;100.00;99857.28;5093063;28;20223;-82
2023/08/21 05:25:57;;;;;;;15.73;14.23;;;;;;;22.26;100.00;99857.28;5093523;28;20199;-81
2023/08/21 05:28:26;;;;;;;15.30;14.02;;;;;;;22.39;100.00;99862.06;5093011;28;20305;-81
2023/08/21 05:30:54;;;;;;;15.68;14.27;;;;;;;22.54;100.00;99856.41;5083286;28;20196;-84
2023/08/21 05:33:21;;;;;;;15.02;13.73;;;;;;;22.68;100.00;99860.03;5101784;28;20245;-83
2023/08/21 05:35:50;;;;;;;15.07;13.73;;;;;;;22.76;100.00;99861.34;5089033;28;20201;-85
2023/08/21 05:38:18;;;;;;;16.27;14.77;;;;;;;22.81;100.00;99856.66;5086798;28;20204;-83
2023/08/21 05:40:46;;;;;;;15.23;13.95;;;;;;;22.91;100.00;99861.13;5089855;28;20597;-81
2023/08/21 05:43:13;;;;;;;16.13;14.63;;;;;;;23.03;100.00;99861.50;5072177;28;20250;-81
2023/08/21 05:45:42;;;;;;;15.43;14.05;;;;;;;23.13;100.00;99853.16;5075046;28;20270;-81
2023/08/21 05:48:12;;;;;;;14.98;13.55;;;;;;;23.30;100.00;99858.09;5091265;28;20228;-81
2023/08/21 05:50:40;;;;;;;14.00;12.90;;;;;;;23.46;100.00;99856.78;5092778;28;20609;-82
2023/08/21 05:53:08;;;;;;;14.35;13.23;;;;;;;23.63;100.00;99857.00;5077268;28;20570;-81
2023/08/21 05:55:40;;;;;;;14.27;13.02;;;;;;;23.81;100.00;99865.44;5096728;28;20200;-81
2023/08/21 05:58:10;;;;;;;14.80;13.40;;;;;;;23.98;100.00;99854.75;5095112;28;20576;-81
2023/08/21 06:00:38;;;;;;;14.60;13.40;;;;;;;24.12;100.00;99859.09;5096429;28;20199;-81
2023/08/21 06:03:07;;;;;;;13.93;12.57;;;;;;;24.27;100.00;99854.47;5085927;28;20206;-81
2023/08/21 06:05:54;;;;;;;14.52;13.10;;;;;;;24.44;100.00;99855.50;5086148;28;20205;-82
2023/08/21 06:08:22;;;;;;;14.32;13.10;;;;;;;24.59;100.00;99859.84;5094714;28;20237;-82
2023/08/21 06:10:53;;;;;;;14.05;12.77;;;;;;;24.72;100.00;99856.28;5092276;28;20235;-81
2023/08/21 06:13:21;;;;;;;13.73;12.52;;;;;;;24.90;100.00;99858.09;5095683;28;20231;-88
2023/08/21 06:15:51;;;;;;;13.93;12.70;;;;;;;25.10;100.00;99859.56;5092391;28;20194;-83
2023/08/21 06:18:20;;;;;;;13.23;12.20;;;;;;;25.30;100.00;99852.75;5091698;28;20207;-80
2023/08/21 06:20:53;;;;;;;13.65;12.52;;;;;;;25.53;100.00;99859.06;5092297;28;20562;-81
2023/08/21 06:23:22;;;;;;;13.52;12.23;;;;;;;25.83;100.00;99850.09;5091090;28;20589;-80
2023/08/21 06:25:49;;;;;;;13.02;12.02;;;;;;;26.10;100.00;99857.31;5093845;28;20187;-82
2023/08/21 06:28:19;;;;;;;14.35;13.00;;;;;;;26.36;100.00;99858.25;5088664;28;20200;-80
2023/08/21 06:30:47;;;;;;;13.50;12.25;;;;;;;26.63;100.00;99852.50;5093079;28;20192;-82
2023/08/21 06:33:14;;;;;;;14.15;12.70;;;;;;;26.91;100.00;99860.50;5091701;28;20228;-80
2023/08/21 06:35:42;;;;;;;13.77;12.45;;;;;;;26.90;100.00;99859.69;5097947;28;20200;-81
2023/08/21 06:38:10;;;;;;;13.13;11.90;;;;;;;26.93;100.00;99864.53;5095220;28;20319;-82
2023/08/21 06:40:38;;;;;;;13.45;12.25;;;;;;;26.94;100.00;99860.66;5094221;28;20208;-81
2023/08/21 06:43:06;;;;;;;13.90;12.55;;;;;;;26.98;100.00;99867.13;5086100;28;20663;-81
2023/08/21 06:45:34;;;;;;;13.82;12.43;;;;;;;27.06;100.00;99865.53;5087691;28;20216;-80
2023/08/21 06:48:03;;;;;;;13.60;12.30;;;;;;;26.97;100.00;99867.47;5088807;28;20548;-82
2023/08/21 06:50:33;;;;;;;14.32;13.10;;;;;;;26.88;100.00;99859.19;5090136;28;20666;-80
2023/08/21 06:53:01;;;;;;;14.05;12.75;;;;;;;27.13;100.00;99866.66;5094570;28;20675;-82
2023/08/21 06:55:29;;;;;;;13.18;11.93;;;;;;;27.36;100.00;99860.97;5093332;28;20196;-82
2023/08/21 06:57:56;;;;;;;13.40;12.10;;;;;;;27.41;100.00;99861.63;5095823;28;20606;-82
2023/08/21 07:00:23;;;;;;;13.45;12.18;;;;;;;27.35;100.00;99862.09;5088249;28;20571;-82
2023/08/21 07:02:51;;;;;;;13.60;12.30;;;;;;;27.39;100.00;99863.09;5091887;28;20188;-82
2023/08/21 07:05:18;;;;;;;13.95;12.68;;;;;;;27.49;100.00;99865.53;5099363;28;20212;-81
2023/08/21 07:07:45;;;;;;;13.68;12.38;;;;;;;27.28;100.00;99862.63;5091082;28;20192;-81
2023/08/21 07:10:13;;;;;;;13.23;12.02;;;;;;;27.21;100.00;99859.53;5077556;28;20200;-79
2023/08/21 07:12:40;;;;;;;13.80;12.43;;;;;;;26.93;100.00;99853.53;5096520;28;20208;-82
2023/08/21 07:15:08;;;;;;;13.15;11.85;;;;;;;26.90;100.00;99859.69;5095705;28;20227;-82
2023/08/21 07:17:39;;;;;;;13.93;12.18;;;;;;;26.93;100.00;99847.22;5095071;28;20214;-81
2023/08/21 07:20:07;;;;;;;13.85;12.32;;;;;;;27.00;100.00;99856.63;5096679;28;20192;-81
2023/08/21 07:22:35;;;;;;;14.13;12.48;;;;;;;27.17;100.00;99855.81;5094940;28;20279;-80
2023/08/21 07:25:04;;;;;;;18.10;13.63;;;;;;;27.14;100.00;99853.72;5098713;28;20590;-81
2023/08/21 07:27:32;;;;;;;15.55;13.27;;;;;;;27.24;100.00;99858.09;5095245;28;20193;-80
2023/08/21 07:30:00;;;;;;;17.55;12.50;;;;;;;27.33;100.00;99856.13;5098549;28;20196;-80
2023/08/21 07:32:28;;;;;;;18.30;12.55;;;;;;;27.28;100.00;99854.34;5095932;28;20224;-80
2023/08/21 07:34:55;;;;;;;22.15;12.00;;;;;;;27.44;100.00;99854.66;5094611;28;20188;-79
2023/08/21 07:37:23;;;;;;;21.35;12.85;;;;;;;27.50;100.00;99853.38;5097622;28;20206;-80
2023/08/21 07:39:51;;;;;;;15.57;12.50;;;;;;;27.66;100.00;99853.69;5099780;28;20485;-80
2023/08/21 07:42:19;;;;;;;17.25;12.63;;;;;;;27.81;100.00;99845.69;5096350;28;20287;-80
2023/08/21 07:44:47;;;;;;;16.55;11.63;;;;;;;27.93;100.00;99851.34;5095746;28;20216;-79
2023/08/21 07:47:15;;;;;;;13.50;11.65;;;;;;;28.09;100.00;99850.81;5099106;28;20191;-81
2023/08/21 07:49:43;;;;;;;13.98;11.65;;;;;;;28.17;100.00;99848.03;5093503;28;20223;-82
2023/08/21 07:52:10;;;;;;;13.50;12.07;;;;;;;28.40;100.00;99852.13;5093375;28;20196;-81
2023/08/21 07:54:38;;;;;;;13.15;11.88;;;;;;;28.48;100.00;99847.72;5098785;28;20211;-81
2023/08/21 07:57:05;;;;;;;14.73;12.18;;;;;;;28.58;100.00;99844.56;5094666;28;20188;-82
2023/08/21 07:59:33;;;;;;;13.05;11.57;;;;;;;28.53;100.00;99855.78;5090798;28;20200;-81
2023/08/21 08:02:02;;;;;;;15.20;12.13;;;;;;;28.65;100.00;99850.34;5089827;28;20693;-81
2023/08/21 08:04:30;;;;;;;13.07;11.38;;;;;;;28.54;100.00;99856.59;5091063;28;20212;-82
2023/08/21 08:06:58;;;;;;;11.30;10.15;;;;;;;28.60;100.00;99847.81;5102809;28;20192;-81
2023/08/21 08:09:25;;;;;;;34.35;13.77;;;;;;;28.38;100.00;99856.34;5098460;28;20192;-81
2023/08/21 08:11:53;;;;;;;33.72;13.40;;;;;;;28.53;100.00;99846.72;5094390;28;20195;-82
2023/08/21 08:14:20;;;;;;;24.00;12.68;;;;;;;28.76;100.00;99848.84;5094382;28;20196;-81
2023/08/21 08:16:48;;;;;;;30.25;13.18;;;;;;;28.84;100.00;99847.19;5094120;28;20658;-81
2023/08/21 08:19:15;;;;;;;16.40;11.93;;;;;;;28.89;100.00;99850.53;5094153;28;20662;-81
2023/08/21 08:21:42;;;;;;;16.98;12.30;;;;;;;29.00;100.00;99850.97;5091806;28;20191;-81
2023/08/21 08:24:10;;;;;;;14.73;12.35;;;;;;;29.06;100.00;99841.34;5089079;28;20247;-82
2023/08/21 08:26:38;;;;;;;13.95;12.20;;;;;;;29.17;100.00;99845.28;5085181;28;20278;-82
2023/08/21 08:29:07;;;;;;;13.48;12.00;;;;;;;29.31;100.00;99843.09;5090177;28;20579;-81
2023/08/21 08:31:35;;;;;;;13.35;12.02;;;;;;;29.45;100.00;99842.78;5101042;28;20195;-83
2023/08/21 08:34:03;;;;;;;16.27;12.07;;;;;;;29.44;100.00;99841.19;5095477;28;20240;-80
2023/08/21 08:36:30;;;;;;;15.10;12.15;;;;;;;29.38;100.00;99845.31;5100988;28;20253;-81
2023/08/21 08:38:58;;;;;;;12.98;11.80;;;;;;;29.65;100.00;99841.94;5088182;28;20231;-80
2023/08/21 08:41:32;;;;;;;13.02;11.82;;;;;;;29.76;100.00;99847.84;5099539;28;20193;-81
2023/08/21 08:44:01;;;;;;;16.00;11.75;;;;;;;29.83;100.00;99852.78;5094545;28;20653;-81
2023/08/21 08:46:30;;;;;;;26.75;12.38;;;;;;;29.83;100.00;99841.75;5097386;28;20241;-83
2023/08/21 08:49:00;;;;;;;16.15;11.80;;;;;;;29.94;100.00;99842.94;5100221;28;20208;-81
2023/08/21 08:51:30;;;;;;;18.80;12.75;;;;;;;30.00;100.00;99842.38;5103983;28;20249;-86
2023/08/21 08:53:59;;;;;;;16.42;12.85;;;;;;;29.85;100.00;99848.56;5096603;28;20266;-81
2023/08/21 08:56:27;;;;;;;14.50;12.45;;;;;;;29.65;100.00;99847.47;5068611;28;20189;-80
2023/08/21 08:58:54;;;;;;;13.40;12.10;;;;;;;29.73;100.00;99841.03;5082226;28;20192;-82
2023/08/21 09:01:23;;;;;;;18.45;12.52;;;;;;;29.98;100.00;99836.41;5099390;28;20200;-81
2023/08/21 09:03:51;;;;;;;32.45;12.93;;;;;;;30.04;100.00;99837.78;5100414;28;20192;-80
2023/08/21 09:06:20;;;;;;;15.95;11.85;;;;;;;30.17;100.00;99846.91;5093636;28;20203;-81
2023/08/21 09:08:57;;;;;;;12.25;10.82;;;;;;;30.49;100.00;99842.41;5101830;28;20196;-80
2023/08/21 09:11:25;;;;;;;12.65;11.35;;;;;;;30.53;100.00;99837.81;5096295;28;20245;-83
2023/08/21 09:13:55;;;;;;;13.55;12.02;;;;;;;30.68;100.00;99837.09;5094983;28;20212;-81
2023/08/21 09:16:25;;;;;;;13.30;12.10;;;;;;;30.73;100.00;99836.06;5094774;28;20185;-89
2023/08/21 09:18:54;;;;;;;13.48;12.15;;;;;;;30.81;100.00;99832.34;5086595;28;20216;-87
2023/08/21 09:21:23;;;;;;;13.35;11.73;;;;;;;30.46;100.00;99832.88;5086498;28;20241;-83
2023/08/21 09:23:58;;;;;;;13.68;11.50;;;;;;;30.67;100.00;99829.16;5081402;28;20568;-81
2023/08/21 09:26:26;;;;;;;12.23;11.07;;;;;;;30.72;100.00;99817.84;5101466;28;20198;-81
2023/08/21 09:28:55;;;;;;;11.80;10.70;;;;;;;30.83;100.00;99819.78;5096328;28;20200;-81
2023/08/21 09:31:23;;;;;;;11.25;10.27;;;;;;;30.81;100.00;99821.28;5101479;28;20286;-81
2023/08/21 09:33:56;;;;;;;12.85;11.57;;;;;;;30.99;100.00;99809.59;5097202;28;20239;-81
2023/08/21 09:36:25;;;;;;;12.95;11.55;;;;;;;31.04;100.00;99811.31;5092845;28;20185;-82
2023/08/21 09:38:52;;;;;;;12.70;11.43;;;;;;;31.19;100.00;99813.34;5097166;28;20195;-81
2023/08/21 09:41:23;;;;;;;12.90;10.85;;;;;;;31.32;100.00;99808.56;5091999;28;20207;-83
2023/08/21 09:43:51;;;;;;;12.02;10.88;;;;;;;31.56;100.00;99808.47;5092724;28;20223;-81
2023/08/21 09:46:25;;;;;;;23.08;11.75;;;;;;;31.41;100.00;99809.19;5097904;28;20211;-82
2023/08/21 09:48:54;;;;;;;13.23;10.50;;;;;;;31.64;100.00;99801.94;5094332;28;20219;-85
2023/08/21 09:51:21;;;;;;;10.73;9.82;;;;;;;31.47;100.00;99803.06;5098087;28;20200;-81
2023/08/21 09:53:49;;;;;;;11.07;10.15;;;;;;;31.74;100.00;99803.38;5094970;28;20200;-81
2023/08/21 09:56:19;;;;;;;11.30;10.15;;;;;;;31.88;100.00;99804.56;5096169;28;20183;-81
2023/08/21 09:58:48;;;;;;;10.85;9.98;;;;;;;32.10;100.00;99803.16;5095318;28;20679;-80
2023/08/21 10:01:17;;;;;;;10.65;9.75;;;;;;;32.19;100.00;99794.66;5091054;28;20203;-81
2023/08/21 10:03:47;;;;;;;10.68;9.77;;;;;;;32.03;100.00;99802.94;5092219;28;20192;-81
2023/08/21 10:06:18;;;;;;;10.43;9.60;;;;;;;32.04;100.00;99795.44;5092302;28;20220;-81
2023/08/21 10:08:52;;;;;;;9.65;8.75;;;;;;;31.72;100.00;99789.09;5098355;28;20202;-81
2023/08/21 10:11:23;;;;;;;9.48;8.65;;;;;;;31.90;99.82;99787.59;5090179;28;20219;-80
2023/08/21 10:13:52;;;;;;;9.93;9.15;;;;;;;32.08;100.00;99791.59;5099101;28;20537;-82
2023/08/21 10:16:21;;;;;;;10.00;9.20;;;;;;;31.91;100.00;99791.97;5081589;28;20203;-81
2023/08/21 10:18:48;;;;;;;9.20;8.35;;;;;;;32.22;98.46;99794.75;5083656;28;20185;-82
2023/08/21 10:21:21;;;;;;;8.93;8.23;;;;;;;32.43;95.97;99794.41;5083609;28;20203;-80
2023/08/21 10:23:54;;;;;;;8.77;8.10;;;;;;;32.46;94.01;99793.72;5088772;28;20200;-82
2023/08/21 10:26:22;;;;;;;8.65;7.78;;;;;;;32.54;92.82;99787.16;5100717;28;20216;-82
2023/08/21 10:28:57;;;;;;;8.55;7.82;;;;;;;32.61;91.56;99794.84;5097332;28;20715;-82
2023/08/21 10:31:35;;;;;;;8.20;7.60;;;;;;;32.73;87.38;99784.44;5091453;28;20714;-81
2023/08/21 10:34:10;;;;;;;8.15;7.55;;;;;;;32.65;85.44;99787.44;5096340;28;20345;-82
2023/08/21 10:36:44;;;;;;;8.25;7.45;;;;;;;32.69;84.97;99785.53;5090400;28;20249;-80
2023/08/21 10:39:16;;;;;;;7.70;6.97;;;;;;;32.84;85.99;99784.69;5090807;28;20229;-81
2023/08/21 10:42:03;;;;;;;7.55;7.00;;;;;;;33.03;82.22;99779.13;5090115;28;20204;-80
2023/08/21 10:44:48;;;;;;;8.15;7.55;;;;;;;33.01;85.40;99786.19;5097467;28;20188;-82
2023/08/21 10:47:30;;;;;;;7.70;7.10;;;;;;;32.67;81.93;99780.34;5093117;28;20215;-81
2023/08/21 10:49:59;;;;;;;8.75;7.95;;;;;;;32.71;82.23;99780.41;5097112;28;20243;-82
2023/08/21 10:52:29;;;;;;;7.70;7.07;;;;;;;32.85;82.25;99779.94;5084492;28;20191;-81
2023/08/21 10:54:58;;;;;;;6.82;6.32;;;;;;;33.00;77.37;99777.06;5091408;28;20287;-83
2023/08/21 10:57:28;;;;;;;8.30;7.05;;;;;;;33.27;76.42;99774.47;5097398;28;20623;-82
2023/08/21 11:00:03;;;;;;;7.35;6.85;;;;;;;33.41;76.25;99775.50;5094140;28;20223;-82
2023/08/21 11:02:33;;;;;;;8.57;7.72;;;;;;;33.22;78.78;99778.34;5086239;28;20204;-85
2023/08/21 11:05:01;;;;;;;8.38;7.68;;;;;;;33.21;78.16;99768.41;5098714;28;20220;-81
2023/08/21 11:07:29;;;;;;;8.52;7.80;;;;;;;33.09;78.09;99780.44;5091863;28;20193;-80
2023/08/21 11:09:59;;;;;;;8.73;7.90;;;;;;;33.31;79.30;99769.78;5090424;28;20227;-80
2023/08/21 11:12:28;;;;;;;8.38;7.57;;;;;;;33.44;79.85;99772.00;5091438;28;20191;-82
2023/08/21 11:14:56;;;;;;;8.30;7.50;;;;;;;33.70;80.29;99757.41;5100026;28;20192;-80
2023/08/21 11:17:25;;;;;;;8.18;7.57;;;;;;;33.57;78.89;99755.97;5093992;28;20188;-90
2023/08/21 11:19:52;;;;;;;8.57;7.97;;;;;;;33.36;79.37;99759.19;5097806;28;20233;-82
2023/08/21 11:22:20;;;;;;;8.00;7.40;;;;;;;33.17;80.08;99761.97;5095180;28;20673;-80